Time;durP1;ratioP1;P1;durP2;ratioP2;P2;SDS_P1;SDS_P2;PMS_P1;PMS_P2;Temp;Humidity;BMP_temperature;BMP_pressure;BME280_temperature;BME280_humidity;BME280_pressure;Samples;Min_cycle;Max_cycle;Signal;HPM_P1;HPM_P2
2022/10/01 00:01:54;;;;;;;4.35;3.17;;;12.40;99.90;;;;;;4944019;28;20546;-84
2022/10/01 00:04:19;;;;;;;3.97;2.20;;;12.30;99.90;;;;;;4960383;28;20031;-84
2022/10/01 00:06:45;;;;;;;5.65;3.35;;;12.30;99.90;;;;;;4924550;28;20394;-84
2022/10/01 00:09:10;;;;;;;6.50;3.17;;;12.40;99.90;;;;;;4965851;28;20026;-83
2022/10/01 00:11:36;;;;;;;2.83;2.58;;;12.40;99.90;;;;;;4941860;28;20038;-82
2022/10/01 00:14:01;;;;;;;4.38;3.60;;;12.40;99.90;;;;;;4928511;28;20031;-83
2022/10/01 00:16:28;;;;;;;5.15;3.25;;;12.40;99.90;;;;;;4939512;28;20074;-83
2022/10/01 00:18:54;;;;;;;4.20;2.80;;;12.40;99.90;;;;;;4942772;28;20146;-84
2022/10/01 00:21:21;;;;;;;3.33;2.58;;;12.40;99.90;;;;;;4941508;28;20106;-83
2022/10/01 00:23:47;;;;;;;5.25;3.05;;;12.50;99.90;;;;;;4945032;28;20035;-83
2022/10/01 00:26:15;;;;;;;2.55;2.35;;;12.40;99.90;;;;;;4957104;28;20050;-83
2022/10/01 00:28:41;;;;;;;5.18;3.67;;;12.50;99.90;;;;;;4956743;28;20058;-83
2022/10/01 00:31:07;;;;;;;7.68;3.28;;;12.40;99.90;;;;;;4926004;28;20046;-83
2022/10/01 00:33:33;;;;;;;5.03;2.80;;;12.40;99.90;;;;;;4927739;28;20059;-83
2022/10/01 00:35:59;;;;;;;2.35;2.08;;;12.30;99.90;;;;;;4953912;28;20081;-84
2022/10/01 00:38:24;;;;;;;5.05;2.55;;;12.40;99.90;;;;;;4929482;28;20442;-83
2022/10/01 00:40:50;;;;;;;3.78;3.20;;;12.30;99.90;;;;;;4940685;28;20105;-84
2022/10/01 00:43:23;;;;;;;5.03;3.13;;;12.20;99.90;;;;;;4959275;28;20387;-85
2022/10/01 00:45:49;;;;;;;7.75;3.63;;;12.10;99.90;;;;;;4948079;28;20564;-84
2022/10/01 00:48:15;;;;;;;4.07;2.88;;;12.00;99.90;;;;;;4945608;28;20035;-83
2022/10/01 00:50:40;;;;;;;6.55;2.75;;;12.00;99.90;;;;;;4928257;28;20491;-84
2022/10/01 00:53:10;;;;;;;5.00;3.10;;;12.00;99.90;;;;;;4930370;28;20443;-84
2022/10/01 00:55:39;;;;;;;5.45;3.25;;;11.90;99.90;;;;;;4933157;28;20152;-85
2022/10/01 00:58:04;;;;;;;5.22;2.67;;;11.80;99.90;;;;;;4958198;28;20039;-85
2022/10/01 01:00:30;;;;;;;4.50;4.03;;;11.80;99.90;;;;;;4957766;28;20086;-85
2022/10/01 01:02:55;;;;;;;4.30;3.45;;;11.70;99.90;;;;;;4930358;28;20084;-85
2022/10/01 01:05:21;;;;;;;6.25;3.90;;;11.70;99.90;;;;;;4959936;28;20034;-85
2022/10/01 01:07:48;;;;;;;6.53;4.20;;;11.60;99.90;;;;;;4930674;28;20168;-84
2022/10/01 01:10:18;;;;;;;7.28;4.55;;;11.60;99.90;;;;;;4925348;28;20027;-85
2022/10/01 01:13:10;;;;;;;3.90;3.30;;;11.50;99.90;;;;;;4939208;28;20062;-85
2022/10/01 01:15:47;;;;;;;4.90;3.65;;;11.50;99.90;;;;;;4961142;28;20086;-85
2022/10/01 01:18:35;;;;;;;4.68;4.00;;;11.40;99.90;;;;;;4941284;28;20042;-85
2022/10/01 01:21:22;;;;;;;5.47;3.67;;;11.40;99.90;;;;;;4956828;28;20034;-85
2022/10/01 01:24:08;;;;;;;6.13;4.32;;;11.30;99.90;;;;;;4956956;28;20035;-85
2022/10/01 01:26:57;;;;;;;2.78;2.08;;;11.20;99.90;;;;;;4946796;28;20043;-85
2022/10/01 01:29:25;;;;;;;7.75;4.45;;;11.30;99.90;;;;;;4921566;28;20030;-85
2022/10/01 01:31:51;;;;;;;6.43;4.10;;;11.20;99.90;;;;;;4941995;28;20391;-86
2022/10/01 01:34:22;;;;;;;5.78;2.95;;;11.30;99.90;;;;;;4947605;28;20126;-85
2022/10/01 01:36:53;;;;;;;7.63;3.60;;;11.20;99.90;;;;;;4928448;28;20427;-86
2022/10/01 01:39:18;;;;;;;6.03;3.72;;;11.20;99.90;;;;;;4946222;28;20038;-86
2022/10/01 01:41:49;;;;;;;8.20;4.07;;;11.10;99.90;;;;;;4958310;28;20063;-86
2022/10/01 01:44:16;;;;;;;6.13;3.72;;;11.20;99.90;;;;;;4925134;28;20042;-85
2022/10/01 01:46:43;;;;;;;5.28;4.22;;;11.10;99.90;;;;;;4942796;28;20123;-86
2022/10/01 01:49:08;;;;;;;7.60;3.85;;;11.10;99.90;;;;;;4925395;28;20483;-86
2022/10/01 01:51:40;;;;;;;5.93;3.92;;;11.10;99.90;;;;;;4940997;28;20063;-86
2022/10/01 01:54:06;;;;;;;5.72;4.88;;;11.00;99.90;;;;;;4943621;28;20030;-85
2022/10/01 01:56:33;;;;;;;3.97;3.55;;;11.00;99.90;;;;;;4922856;28;20045;-85
2022/10/01 01:58:59;;;;;;;5.35;4.05;;;11.00;99.90;;;;;;4926998;28;20035;-86
2022/10/01 02:01:32;;;;;;;2.38;1.80;;;11.10;99.90;;;;;;4937708;28;20066;-86
2022/10/01 02:03:58;;;;;;;3.63;3.05;;;11.00;99.90;;;;;;4945865;28;20487;-86
2022/10/01 02:06:47;;;;;;;3.95;3.45;;;10.90;99.90;;;;;;4943806;28;20035;-86
2022/10/01 02:09:21;;;;;;;7.30;3.95;;;10.90;99.90;;;;;;4932408;28;20043;-86
2022/10/01 02:12:06;;;;;;;5.75;4.15;;;11.00;99.90;;;;;;4927862;28;20110;-85
2022/10/01 02:14:46;;;;;;;4.65;2.92;;;10.90;99.90;;;;;;4932395;28;20060;-85
2022/10/01 02:17:37;;;;;;;4.72;3.33;;;10.90;99.90;;;;;;4949772;28;20462;-86
2022/10/01 02:20:09;;;;;;;4.80;2.65;;;10.90;99.90;;;;;;4960054;28;20110;-86
2022/10/01 02:22:43;;;;;;;4.75;3.60;;;10.90;99.90;;;;;;4942973;28;20510;-86
2022/10/01 02:25:08;;;;;;;4.22;3.65;;;10.90;99.90;;;;;;4947184;28;20055;-85
2022/10/01 02:27:59;;;;;;;5.45;4.00;;;10.90;99.90;;;;;;4932511;28;20070;-86
2022/10/01 02:30:25;;;;;;;7.10;2.67;;;10.90;99.90;;;;;;4947730;28;20459;-82
2022/10/01 02:32:51;;;;;;;4.18;2.97;;;10.90;99.90;;;;;;4957573;28;20062;-81
2022/10/01 02:35:17;;;;;;;4.97;3.63;;;11.00;99.90;;;;;;4934225;28;20895;-82
2022/10/01 02:37:43;;;;;;;2.80;2.03;;;10.90;99.90;;;;;;4930357;28;20035;-82
2022/10/01 02:40:14;;;;;;;5.88;2.65;;;10.90;99.90;;;;;;4930150;28;20039;-83
2022/10/01 02:42:41;;;;;;;3.92;2.25;;;10.80;99.90;;;;;;4934567;28;20042;-82
2022/10/01 02:45:07;;;;;;;9.05;2.08;;;10.90;99.90;;;;;;4915517;28;20816;-82
2022/10/01 02:47:43;;;;;;;3.08;2.63;;;10.90;99.90;;;;;;4943400;28;20027;-82
2022/10/01 02:50:08;;;;;;;2.88;2.47;;;10.80;99.90;;;;;;4946748;28;20039;-82
2022/10/01 02:52:47;;;;;;;6.05;3.50;;;10.80;99.90;;;;;;4946179;28;20148;-82
2022/10/01 02:55:23;;;;;;;4.68;3.25;;;10.80;99.90;;;;;;4952058;28;20031;-82
2022/10/01 02:57:48;;;;;;;;;;;10.90;99.90;;;;;;4942425;28;20063;-82
2022/10/01 03:00:15;;;;;;;3.13;2.40;;;10.80;99.90;;;;;;4936816;28;19949;-82
2022/10/01 03:02:41;;;;;;;2.63;2.08;;;10.80;99.90;;;;;;4929609;28;20259;-81
2022/10/01 03:05:07;;;;;;;6.00;2.83;;;10.70;99.90;;;;;;4941070;28;20034;-80
2022/10/01 03:07:35;;;;;;;2.55;2.22;;;10.80;99.90;;;;;;4928105;28;20039;-81
2022/10/01 03:10:02;;;;;;;0.95;0.80;;;10.70;99.90;;;;;;4944719;28;20457;-82
2022/10/01 03:12:28;;;;;;;5.00;2.60;;;10.70;99.90;;;;;;4941211;28;20039;-81
2022/10/01 03:14:53;;;;;;;6.75;3.60;;;10.80;99.90;;;;;;4940186;28;20027;-82
2022/10/01 03:17:19;;;;;;;4.10;3.10;;;10.70;99.90;;;;;;4931352;28;20031;-82
2022/10/01 03:19:45;;;;;;;4.15;3.28;;;10.70;99.90;;;;;;4936319;28;20114;-82
2022/10/01 03:22:12;;;;;;;3.53;2.67;;;10.80;99.90;;;;;;4945577;28;20061;-81
2022/10/01 03:24:38;;;;;;;4.28;3.65;;;10.70;99.90;;;;;;4936928;28;20057;-81
2022/10/01 03:27:03;;;;;;;3.58;2.83;;;10.70;99.90;;;;;;4931958;28;20047;-81
2022/10/01 03:29:29;;;;;;;5.35;3.33;;;10.60;99.90;;;;;;4923953;28;20043;-81
2022/10/01 03:31:55;;;;;;;8.98;3.90;;;10.70;99.90;;;;;;4930949;28;20123;-81
2022/10/01 03:34:21;;;;;;;3.58;3.15;;;10.70;99.90;;;;;;4944001;28;20095;-81
2022/10/01 03:36:47;;;;;;;2.70;2.42;;;10.70;99.90;;;;;;4938165;28;20479;-81
2022/10/01 03:39:13;;;;;;;6.55;3.20;;;10.80;99.90;;;;;;4928932;28;20039;-81
2022/10/01 03:41:39;;;;;;;3.42;3.13;;;10.70;99.90;;;;;;4926189;28;20043;-80
2022/10/01 03:44:04;;;;;;;5.55;3.30;;;10.80;99.90;;;;;;4939160;28;20512;-81
2022/10/01 03:46:30;;;;;;;4.80;3.50;;;10.70;99.90;;;;;;4939611;28;20068;-80
2022/10/01 03:48:56;;;;;;;4.13;3.45;;;10.70;99.90;;;;;;4925158;28;20039;-80
2022/10/01 03:51:22;;;;;;;3.03;2.40;;;10.70;99.90;;;;;;4914872;28;20074;-80
2022/10/01 03:53:48;;;;;;;5.18;2.70;;;10.70;99.90;;;;;;4929667;29;20534;-80
2022/10/01 03:56:14;;;;;;;3.05;2.28;;;10.80;99.90;;;;;;4918139;29;20067;-81
2022/10/01 03:58:40;;;;;;;2.90;2.58;;;10.70;99.90;;;;;;4922979;28;20118;-80
2022/10/01 04:01:05;;;;;;;3.47;2.42;;;10.70;99.90;;;;;;4928840;28;20028;-81
2022/10/01 04:03:31;;;;;;;4.03;2.40;;;10.70;99.90;;;;;;4941576;28;20062;-81
2022/10/01 04:05:56;;;;;;;2.50;1.50;;;10.80;99.90;;;;;;4934398;28;20656;-81
2022/10/01 04:08:22;;;;;;;4.80;2.20;;;10.70;99.90;;;;;;4924616;28;20404;-81
2022/10/01 04:10:48;;;;;;;2.15;1.80;;;10.70;99.90;;;;;;4930841;29;20031;-81
2022/10/01 04:13:13;;;;;;;3.05;2.08;;;10.70;99.90;;;;;;4928130;29;20043;-81
2022/10/01 04:15:39;;;;;;;2.95;1.60;;;10.60;99.90;;;;;;4958648;28;20043;-80
2022/10/01 04:18:05;;;;;;;2.58;1.77;;;10.70;99.90;;;;;;4957839;28;20110;-81
2022/10/01 04:20:34;;;;;;;3.42;2.08;;;10.60;99.90;;;;;;4964369;28;20036;-82
2022/10/01 04:23:00;;;;;;;1.83;1.73;;;10.70;99.90;;;;;;4943858;28;20495;-81
2022/10/01 04:25:26;;;;;;;2.33;1.58;;;10.70;99.90;;;;;;4962354;28;20028;-81
2022/10/01 04:28:01;;;;;;;1.50;1.08;;;10.70;99.90;;;;;;4932405;28;20041;-82
2022/10/01 04:30:28;;;;;;;3.47;2.00;;;10.70;99.90;;;;;;4948373;28;20030;-81
2022/10/01 04:32:53;;;;;;;1.92;1.55;;;10.70;99.90;;;;;;4930069;28;20039;-82
2022/10/01 04:35:19;;;;;;;4.30;1.98;;;10.70;99.90;;;;;;4960751;28;20043;-82
2022/10/01 04:37:45;;;;;;;0.85;0.82;;;10.70;99.90;;;;;;4937458;28;20114;-83
2022/10/01 04:40:10;;;;;;;1.48;1.38;;;10.70;99.90;;;;;;4926906;28;20038;-82
2022/10/01 04:42:42;;;;;;;1.33;1.15;;;10.70;99.90;;;;;;4931648;28;20058;-81
2022/10/01 04:45:09;;;;;;;1.65;1.17;;;10.70;99.90;;;;;;4942252;28;20065;-82
2022/10/01 04:47:38;;;;;;;3.13;1.27;;;10.70;99.90;;;;;;4943738;28;20518;-82
2022/10/01 04:50:04;;;;;;;1.40;1.20;;;10.80;99.90;;;;;;4947093;28;20039;-82
2022/10/01 04:52:29;;;;;;;1.60;1.10;;;10.80;99.90;;;;;;4924627;28;20047;-82
2022/10/01 04:54:55;;;;;;;1.40;0.95;;;10.70;99.90;;;;;;4944422;28;20042;-82
2022/10/01 04:57:20;;;;;;;1.75;1.10;;;10.80;99.90;;;;;;4957838;28;20039;-82
2022/10/01 04:59:47;;;;;;;0.80;0.80;;;10.80;99.90;;;;;;4946425;28;20030;-82
2022/10/01 05:02:12;;;;;;;0.93;0.77;;;10.80;99.90;;;;;;4946581;28;20471;-82
2022/10/01 05:04:38;;;;;;;1.40;1.17;;;10.80;99.90;;;;;;4927438;28;20043;-83
2022/10/01 05:07:04;;;;;;;1.52;1.08;;;10.80;99.90;;;;;;4953646;28;20042;-82
2022/10/01 05:09:30;;;;;;;0.85;0.80;;;10.80;99.90;;;;;;4944817;28;20450;-82
2022/10/01 05:11:55;;;;;;;1.23;1.00;;;10.90;99.90;;;;;;4954556;28;20404;-82
2022/10/01 05:14:21;;;;;;;6.75;0.85;;;10.80;99.90;;;;;;4955172;28;20035;-82
2022/10/01 05:16:46;;;;;;;1.15;0.80;;;11.00;99.90;;;;;;4928486;28;20075;-82
2022/10/01 05:19:13;;;;;;;1.92;0.95;;;11.00;99.90;;;;;;4953468;28;20069;-82
2022/10/01 05:21:38;;;;;;;6.68;0.70;;;11.00;99.90;;;;;;4928168;28;20042;-82
2022/10/01 05:24:04;;;;;;;1.75;0.95;;;11.00;99.90;;;;;;4929514;28;20512;-83
2022/10/01 05:26:30;;;;;;;3.08;1.48;;;11.00;99.90;;;;;;4926328;28;20069;-82
2022/10/01 05:28:58;;;;;;;0.80;0.65;;;11.00;99.90;;;;;;4930729;28;20510;-82
2022/10/01 05:31:23;;;;;;;3.55;0.90;;;11.00;99.90;;;;;;4961950;28;20156;-83
2022/10/01 05:33:52;;;;;;;0.70;0.70;;;11.10;99.90;;;;;;4941154;28;20051;-83
2022/10/01 05:36:19;;;;;;;0.90;0.85;;;11.00;99.90;;;;;;4956269;28;20058;-83
2022/10/01 05:38:47;;;;;;;0.93;0.60;;;11.00;99.90;;;;;;4953126;28;20051;-82
2022/10/01 05:41:15;;;;;;;2.00;0.80;;;11.00;99.90;;;;;;4928477;28;20049;-82
2022/10/01 05:43:40;;;;;;;2.67;0.90;;;11.00;99.90;;;;;;4926579;28;20039;-83
2022/10/01 05:46:06;;;;;;;2.10;0.73;;;11.10;99.90;;;;;;4926994;28;20042;-82
2022/10/01 05:48:35;;;;;;;1.77;1.02;;;11.00;99.90;;;;;;4941525;28;20114;-83
2022/10/01 05:51:03;;;;;;;1.00;0.68;;;11.10;99.90;;;;;;4965376;28;20035;-83
2022/10/01 05:53:28;;;;;;;2.08;0.50;;;11.10;99.90;;;;;;4929652;28;20023;-83
2022/10/01 05:55:54;;;;;;;0.68;0.43;;;11.10;99.90;;;;;;4954339;28;20041;-84
2022/10/01 05:58:20;;;;;;;0.57;0.45;;;11.10;99.90;;;;;;4929096;28;20097;-84
2022/10/01 06:00:46;;;;;;;1.73;0.95;;;11.20;99.90;;;;;;4924984;28;20038;-82
2022/10/01 06:03:12;;;;;;;0.80;0.47;;;11.20;99.90;;;;;;4945306;28;20027;-82
2022/10/01 06:05:37;;;;;;;0.77;0.40;;;11.20;99.90;;;;;;4938762;28;20054;-83
2022/10/01 06:08:04;;;;;;;0.40;0.40;;;11.20;99.90;;;;;;4956461;28;20510;-83
2022/10/01 06:10:31;;;;;;;0.55;0.50;;;11.20;99.90;;;;;;4935082;28;20062;-82
2022/10/01 06:13:00;;;;;;;0.98;0.95;;;11.20;99.90;;;;;;4944211;28;20038;-82
2022/10/01 06:15:26;;;;;;;0.50;0.32;;;11.20;99.90;;;;;;4926061;28;20031;-82
2022/10/01 06:17:52;;;;;;;0.30;0.20;;;11.20;99.90;;;;;;4931010;28;20115;-82
2022/10/01 06:20:19;;;;;;;0.50;0.50;;;11.30;99.90;;;;;;4926741;28;20042;-84
2022/10/01 06:22:52;;;;;;;0.70;0.50;;;11.30;99.90;;;;;;4927445;28;20035;-82
2022/10/01 06:25:17;;;;;;;0.73;0.38;;;11.20;99.90;;;;;;4931954;28;20432;-82
2022/10/01 06:27:43;;;;;;;0.50;0.50;;;11.30;99.90;;;;;;4932710;28;20050;-83
2022/10/01 06:30:09;;;;;;;0.70;0.30;;;11.30;99.90;;;;;;4926245;28;20034;-81
2022/10/01 06:32:35;;;;;;;0.28;0.20;;;11.30;99.90;;;;;;4941991;28;20031;-82
2022/10/01 06:35:01;;;;;;;0.28;0.17;;;11.40;99.90;;;;;;4942562;28;20043;-82
2022/10/01 06:37:26;;;;;;;1.33;0.40;;;11.30;99.90;;;;;;4930703;28;20019;-82
2022/10/01 06:39:52;;;;;;;1.17;0.40;;;11.30;99.90;;;;;;4925593;28;20038;-82
2022/10/01 06:42:17;;;;;;;1.38;0.30;;;11.30;99.90;;;;;;4959636;28;20117;-82
2022/10/01 06:44:43;;;;;;;0.35;0.20;;;11.30;99.90;;;;;;4940155;28;20031;-82
2022/10/01 06:47:08;;;;;;;0.30;0.20;;;11.30;99.90;;;;;;4929557;28;20554;-82
2022/10/01 06:49:34;;;;;;;0.50;0.22;;;11.30;99.90;;;;;;4931179;28;20395;-82
2022/10/01 06:54:44;;;;;;;0.90;0.45;;;11.30;99.90;;;;;;4945467;28;20159;-82
2022/10/01 06:57:09;;;;;;;0.77;0.50;;;11.30;99.90;;;;;;4930405;28;20548;-82
2022/10/01 06:59:35;;;;;;;0.40;0.40;;;11.40;99.90;;;;;;4949460;28;20073;-82
2022/10/01 07:02:02;;;;;;;0.85;0.73;;;11.30;99.90;;;;;;4929533;28;20023;-82
2022/10/01 07:04:27;;;;;;;0.30;0.30;;;11.50;99.90;;;;;;4935402;28;20067;-82
2022/10/01 07:06:54;;;;;;;0.68;0.40;;;11.40;99.90;;;;;;4931059;28;20061;-82
2022/10/01 07:09:23;;;;;;;0.52;0.40;;;11.40;99.90;;;;;;4967079;28;20038;-82
2022/10/01 07:11:49;;;;;;;0.30;0.30;;;11.40;99.90;;;;;;4948746;28;20046;-82
2022/10/01 07:14:14;;;;;;;0.73;0.43;;;11.40;99.90;;;;;;4964593;28;20063;-81
2022/10/01 07:16:40;;;;;;;0.47;0.30;;;11.40;99.90;;;;;;4946229;28;20035;-82
2022/10/01 07:19:05;;;;;;;1.90;0.47;;;11.40;99.90;;;;;;4942805;28;20053;-82
2022/10/01 07:21:31;;;;;;;0.43;0.40;;;11.40;99.90;;;;;;4928982;28;20057;-81
2022/10/01 07:23:57;;;;;;;0.40;0.25;;;11.50;99.90;;;;;;4941539;28;20408;-81
2022/10/01 07:26:22;;;;;;;0.80;0.20;;;11.40;99.90;;;;;;4957429;28;20506;-82
2022/10/01 07:28:48;;;;;;;0.28;0.22;;;11.50;99.90;;;;;;4949452;28;20413;-81
2022/10/01 07:31:13;;;;;;;1.00;0.35;;;11.50;99.90;;;;;;4959440;28;20434;-82
2022/10/01 07:33:39;;;;;;;0.35;0.30;;;11.50;99.90;;;;;;4924314;28;20039;-82
2022/10/01 07:36:06;;;;;;;2.05;0.82;;;11.50;99.90;;;;;;4944922;28;20032;-82
2022/10/01 07:38:32;;;;;;;0.30;0.30;;;11.50;99.90;;;;;;4945935;28;20480;-82
2022/10/01 07:40:58;;;;;;;0.50;0.32;;;11.60;99.90;;;;;;4940693;28;20043;-82
2022/10/01 07:43:23;;;;;;;0.35;0.35;;;11.60;99.90;;;;;;4939343;28;20044;-82
2022/10/01 07:45:51;;;;;;;0.20;0.20;;;11.60;99.90;;;;;;4959441;28;20035;-82
2022/10/01 07:48:18;;;;;;;2.40;0.30;;;11.60;99.90;;;;;;4952308;28;20049;-83
2022/10/01 07:50:46;;;;;;;0.40;0.30;;;11.60;99.90;;;;;;4931673;28;20058;-86
2022/10/01 07:53:12;;;;;;;1.02;0.40;;;11.60;99.90;;;;;;4945165;28;20030;-85
2022/10/01 07:55:39;;;;;;;1.08;0.45;;;11.60;99.90;;;;;;4944635;28;20035;-86
2022/10/01 07:58:04;;;;;;;1.27;0.40;;;11.70;99.90;;;;;;4928056;28;20072;-86
2022/10/01 08:00:31;;;;;;;0.68;0.65;;;11.70;99.90;;;;;;4949909;28;20070;-85
2022/10/01 08:02:57;;;;;;;0.10;0.10;;;11.80;99.90;;;;;;4928908;28;20034;-85
2022/10/01 08:05:25;;;;;;;2.55;0.70;;;11.90;99.90;;;;;;4946392;28;20499;-85
2022/10/01 08:07:53;;;;;;;2.85;0.50;;;11.90;99.90;;;;;;4945988;28;20035;-84
2022/10/01 08:10:19;;;;;;;0.85;0.43;;;12.00;99.90;;;;;;4947384;28;20058;-84
2022/10/01 08:12:45;;;;;;;0.90;0.50;;;12.10;99.90;;;;;;4928553;28;20062;-85
2022/10/01 08:15:11;;;;;;;0.77;0.40;;;12.10;99.90;;;;;;4933709;28;20106;-85
2022/10/01 08:17:40;;;;;;;1.63;0.30;;;12.20;99.90;;;;;;4958376;28;20150;-84
2022/10/01 08:20:06;;;;;;;0.32;0.30;;;12.30;99.90;;;;;;4926185;28;20081;-84
2022/10/01 08:22:34;;;;;;;0.50;0.28;;;12.30;99.90;;;;;;4944407;28;20074;-84
2022/10/01 08:25:00;;;;;;;0.32;0.20;;;12.40;99.90;;;;;;4949790;28;20530;-84
2022/10/01 08:27:26;;;;;;;0.45;0.45;;;12.50;99.90;;;;;;4944654;28;20019;-84
2022/10/01 08:29:52;;;;;;;0.85;0.70;;;12.50;99.90;;;;;;4922971;28;20039;-84
2022/10/01 08:32:20;;;;;;;0.98;0.60;;;12.60;99.90;;;;;;4939495;28;20118;-84
2022/10/01 08:34:46;;;;;;;0.30;0.30;;;12.80;99.90;;;;;;4927838;28;20034;-84
2022/10/01 08:37:13;;;;;;;1.10;0.32;;;12.90;99.90;;;;;;4916526;28;20065;-84
2022/10/01 08:39:38;;;;;;;3.92;0.65;;;12.90;99.90;;;;;;4946860;28;20057;-84
2022/10/01 08:42:35;;;;;;;3.45;0.60;;;13.00;99.90;;;;;;4931192;28;20427;-84
2022/10/01 08:45:04;;;;;;;4.40;0.88;;;13.00;99.90;;;;;;4946160;28;20030;-84
2022/10/01 08:47:40;;;;;;;4.25;0.57;;;13.10;99.90;;;;;;4942541;28;20122;-83
2022/10/01 08:50:35;;;;;;;0.98;0.80;;;13.30;99.90;;;;;;4924510;28;20035;-84
2022/10/01 08:53:03;;;;;;;1.90;0.80;;;13.40;99.90;;;;;;4942509;28;20091;-83
2022/10/01 08:55:34;;;;;;;0.88;0.57;;;13.60;99.90;;;;;;4939645;28;20043;-83
2022/10/01 08:58:02;;;;;;;0.40;0.40;;;13.70;99.90;;;;;;4942896;28;20067;-83
2022/10/01 09:00:30;;;;;;;1.75;0.65;;;13.80;99.90;;;;;;4912391;28;20101;-83
2022/10/01 09:02:57;;;;;;;2.67;0.70;;;14.00;99.90;;;;;;4941183;28;20045;-83
2022/10/01 09:06:02;;;;;;;0.60;0.30;;;14.10;99.90;;;;;;4962257;28;20027;-83
2022/10/01 09:08:59;;;;;;;1.88;0.50;;;14.10;99.90;;;;;;4945813;28;20056;-83
2022/10/01 09:11:25;;;;;;;;;;;14.10;99.90;;;;;;4942860;28;20522;-83
2022/10/01 09:14:09;;;;;;;0.73;0.73;;;14.20;99.90;;;;;;4958768;28;19917;-83
2022/10/01 09:17:13;;;;;;;2.47;1.13;;;14.30;99.90;;;;;;4960615;28;20657;-83
2022/10/01 09:19:44;;;;;;;2.55;0.90;;;14.40;99.90;;;;;;4946687;28;20507;-83
2022/10/01 09:22:20;;;;;;;1.20;0.80;;;14.30;99.90;;;;;;4955478;28;20031;-82
2022/10/01 09:24:52;;;;;;;0.90;0.90;;;14.40;99.90;;;;;;4940610;28;20615;-82
2022/10/01 09:27:23;;;;;;;1.17;0.80;;;14.30;99.90;;;;;;4943286;28;20035;-82
2022/10/01 09:30:11;;;;;;;0.95;0.75;;;14.20;99.90;;;;;;4944690;28;20035;-82
2022/10/01 09:32:51;;;;;;;1.73;1.20;;;14.20;99.90;;;;;;4944422;28;20150;-82
2022/10/01 09:35:30;;;;;;;2.15;0.80;;;14.10;99.90;;;;;;4926934;28;20403;-81
2022/10/01 09:37:58;;;;;;;3.05;0.68;;;14.00;99.90;;;;;;4941850;28;20031;-81
2022/10/01 09:40:29;;;;;;;0.93;0.55;;;14.00;99.90;;;;;;4948027;28;20130;-82
2022/10/01 09:42:55;;;;;;;3.58;1.20;;;13.80;99.90;;;;;;4954756;28;20031;-82
2022/10/01 09:45:20;;;;;;;1.33;1.15;;;13.80;99.90;;;;;;4931567;28;20078;-84
2022/10/01 09:47:49;;;;;;;2.63;0.98;;;13.90;99.90;;;;;;4903669;28;20035;-84
2022/10/01 09:50:21;;;;;;;1.10;0.95;;;13.90;99.90;;;;;;4935653;28;20039;-85
2022/10/01 09:52:47;;;;;;;1.50;1.05;;;14.00;99.90;;;;;;4936071;28;20492;-84
2022/10/01 09:55:38;;;;;;;1.48;1.10;;;14.10;99.90;;;;;;4945465;28;20031;-83
2022/10/01 09:58:15;;;;;;;4.13;1.00;;;14.00;99.90;;;;;;4941403;28;20566;-83
2022/10/01 10:00:40;;;;;;;0.90;0.70;;;14.00;99.90;;;;;;4941318;28;20024;-83
2022/10/01 10:03:06;;;;;;;1.25;1.05;;;14.00;99.90;;;;;;4927200;28;20042;-83
2022/10/01 10:05:42;;;;;;;2.40;0.77;;;14.10;99.90;;;;;;4941462;28;20035;-83
2022/10/01 10:08:18;;;;;;;2.75;0.93;;;14.00;99.90;;;;;;4931077;28;20024;-83
2022/10/01 10:10:53;;;;;;;1.20;0.80;;;13.90;99.90;;;;;;4925836;28;20074;-83
2022/10/01 10:13:30;;;;;;;1.42;0.80;;;13.90;99.90;;;;;;4917235;28;20523;-83
2022/10/01 10:15:58;;;;;;;0.95;0.75;;;13.80;99.90;;;;;;4952577;28;20027;-84
2022/10/01 10:18:28;;;;;;;1.20;0.85;;;13.80;99.90;;;;;;4898123;29;20047;-84
2022/10/01 10:20:54;;;;;;;2.63;1.02;;;13.90;99.90;;;;;;4931016;28;20364;-84
2022/10/01 10:23:21;;;;;;;1.73;1.02;;;13.80;99.90;;;;;;4947871;28;20035;-83
2022/10/01 10:26:06;;;;;;;5.00;1.10;;;13.90;99.90;;;;;;4950368;28;20042;-83
2022/10/01 10:28:45;;;;;;;2.33;1.42;;;14.10;99.90;;;;;;4932998;28;20082;-84
2022/10/01 10:31:27;;;;;;;3.78;2.10;;;14.10;99.90;;;;;;4923883;28;20781;-84
2022/10/01 10:33:57;;;;;;;3.63;1.05;;;14.30;99.90;;;;;;4948203;28;20031;-84
2022/10/01 10:36:28;;;;;;;1.40;0.80;;;14.50;99.90;;;;;;4951390;28;20039;-83
2022/10/01 10:38:54;;;;;;;2.17;1.20;;;14.70;99.90;;;;;;4932168;28;20114;-83
2022/10/01 10:41:24;;;;;;;1.67;1.52;;;14.90;99.90;;;;;;4944107;28;20114;-83
2022/10/01 10:43:51;;;;;;;3.70;2.60;;;15.00;99.90;;;;;;4945954;28;20035;-84
2022/10/01 10:46:30;;;;;;;1.10;1.00;;;15.30;99.90;;;;;;4930049;28;20522;-84
2022/10/01 10:49:07;;;;;;;3.25;1.88;;;15.40;99.90;;;;;;4945174;28;20391;-83
2022/10/01 10:51:50;;;;;;;2.13;1.40;;;15.70;99.90;;;;;;4948735;28;20035;-84
2022/10/01 10:54:22;;;;;;;4.10;1.77;;;15.90;99.90;;;;;;4936416;28;20115;-84
2022/10/01 10:57:01;;;;;;;3.50;1.75;;;15.90;99.90;;;;;;4938461;28;20047;-84
2022/10/01 10:59:31;;;;;;;4.57;2.03;;;16.10;99.90;;;;;;4931338;28;20028;-84
2022/10/01 11:02:00;;;;;;;4.93;1.80;;;16.30;99.90;;;;;;4922525;28;20031;-83
2022/10/01 11:04:43;;;;;;;3.83;2.00;;;16.40;99.90;;;;;;4929619;28;20043;-83
2022/10/01 11:07:09;;;;;;;5.10;1.88;;;16.60;99.90;;;;;;4943885;28;20035;-83
2022/10/01 11:10:04;;;;;;;5.28;1.77;;;16.60;99.90;;;;;;4938347;28;20027;-84
2022/10/01 11:12:42;;;;;;;6.57;1.98;;;16.80;99.90;;;;;;4962764;28;20043;-85
2022/10/01 11:15:49;;;;;;;10.63;3.00;;;17.00;99.90;;;;;;4960182;28;20483;-85
2022/10/01 11:18:54;;;;;;;6.63;3.05;;;17.00;99.90;;;;;;4928961;29;20083;-85
2022/10/01 11:22:01;;;;;;;13.25;3.70;;;16.90;99.90;;;;;;4967454;28;20046;-85
2022/10/01 11:24:45;;;;;;;5.78;2.50;;;17.10;99.90;;;;;;4950847;28;20435;-84
2022/10/01 11:27:35;;;;;;;7.15;2.83;;;17.10;99.90;;;;;;4962315;28;20101;-84
2022/10/01 11:30:08;;;;;;;3.28;2.05;;;17.00;99.90;;;;;;4974393;28;20109;-83
2022/10/01 11:32:38;;;;;;;5.93;2.35;;;17.10;99.90;;;;;;4949443;28;20036;-84
2022/10/01 11:35:20;;;;;;;12.13;3.08;;;17.30;99.90;;;;;;4960882;28;20398;-84
2022/10/01 11:38:10;;;;;;;5.82;2.63;;;17.40;99.90;;;;;;4963772;28;20039;-84
2022/10/01 11:40:40;;;;;;;8.95;2.90;;;17.50;99.90;;;;;;4953620;28;20448;-84
2022/10/01 11:43:27;;;;;;;8.57;2.45;;;17.50;99.90;;;;;;4950266;28;20031;-84
2022/10/01 11:45:56;;;;;;;8.57;2.88;;;17.40;99.90;;;;;;4967261;28;20039;-82
2022/10/01 11:48:27;;;;;;;5.28;2.20;;;17.20;99.90;;;;;;4928597;28;20463;-83
2022/10/01 11:50:54;;;;;;;8.68;3.40;;;17.10;99.90;;;;;;4959738;28;20043;-81
2022/10/01 11:53:29;;;;;;;11.98;2.95;;;17.10;99.90;;;;;;4951550;28;20042;-81
2022/10/01 11:59:20;;;;;;;29.70;4.60;;;17.20;99.90;;;;;;4957825;28;20123;-80
2022/10/01 12:02:03;;;;;;;27.67;5.07;;;16.80;99.90;;;;;;4944572;28;20035;-79
2022/10/01 12:04:32;;;;;;;8.77;3.58;;;16.40;99.90;;;;;;4937812;28;20451;-81
2022/10/01 12:07:03;;;;;;;12.63;4.18;;;15.80;99.90;;;;;;4935020;28;20030;-82
2022/10/01 12:09:36;;;;;;;7.35;4.60;;;15.80;99.90;;;;;;4975359;28;20122;-82
2022/10/01 12:12:08;;;;;;;11.93;3.80;;;15.90;99.90;;;;;;4934108;28;20126;-86
2022/10/01 12:14:51;;;;;;;12.73;3.60;;;16.00;99.90;;;;;;4933540;28;20031;-85
2022/10/01 12:17:47;;;;;;;6.53;2.85;;;16.10;99.90;;;;;;4931313;28;20035;-84
2022/10/01 12:20:40;;;;;;;11.38;3.92;;;16.10;99.90;;;;;;4961593;28;20098;-82
2022/10/01 12:23:09;;;;;;;11.88;5.35;;;16.10;99.90;;;;;;4957923;28;20547;-82
2022/10/01 12:25:51;;;;;;;10.98;3.80;;;16.10;99.90;;;;;;4932111;28;20057;-84
2022/10/01 12:28:20;;;;;;;5.70;3.60;;;16.10;99.90;;;;;;4922394;28;20035;-85
2022/10/01 12:30:53;;;;;;;6.13;3.00;;;16.20;99.90;;;;;;4946473;28;20372;-86
2022/10/01 12:33:27;;;;;;;8.35;4.00;;;16.10;99.90;;;;;;4937168;28;20511;-86
2022/10/01 12:36:28;;;;;;;4.80;3.03;;;16.20;99.90;;;;;;4959320;28;20046;-84
2022/10/01 12:38:59;;;;;;;6.18;2.90;;;16.30;99.90;;;;;;4938844;28;20042;-84
2022/10/01 12:41:47;;;;;;;6.90;3.00;;;16.50;99.90;;;;;;4959858;28;20106;-83
2022/10/01 12:44:15;;;;;;;6.57;2.25;;;16.60;99.90;;;;;;4947540;28;20030;-84
2022/10/01 12:47:05;;;;;;;12.05;3.13;;;16.80;99.90;;;;;;4952789;28;20328;-83
2022/10/01 12:49:48;;;;;;;7.13;2.33;;;16.80;99.90;;;;;;4952713;28;20038;-82
2022/10/01 12:52:24;;;;;;;6.15;1.52;;;16.90;99.90;;;;;;4942131;28;20755;-83
2022/10/01 12:54:54;;;;;;;3.22;1.90;;;17.20;99.90;;;;;;4937330;28;20031;-84
2022/10/01 12:57:47;;;;;;;7.40;1.60;;;17.20;99.90;;;;;;4925900;28;20054;-83
2022/10/01 13:00:23;;;;;;;6.25;2.00;;;17.20;99.90;;;;;;4939232;28;20041;-83
2022/10/01 13:03:37;;;;;;;8.63;1.70;;;17.20;99.90;;;;;;4946182;28;20039;-83
2022/10/01 13:06:20;;;;;;;8.88;1.38;;;17.40;99.90;;;;;;4943393;28;20023;-82
2022/10/01 13:09:07;;;;;;;4.35;1.77;;;17.60;99.90;;;;;;4958399;28;20069;-83
2022/10/01 13:11:51;;;;;;;;;;;17.60;99.90;;;;;;4959836;28;20054;-83
2022/10/01 13:14:17;;;;;;;5.47;1.63;;;17.50;99.90;;;;;;4939990;28;20311;-84